Time,TemperatureF,DewpointF,PressureIn,WindDirection,WindDirectionDegrees,WindSpeedMPH,WindSpeedGustMPH,Humidity,HourlyPrecipIn,Conditions,Clouds,dailyrainin,SoftwareType,DateUTC
2013-01-19 00:01:00,28.1,27.4,30.63,NE,37,0.0,0.0,97,0.00,,,0.00,Wunderground v.1.15,2013-01-19 05:01:00,
2013-01-19 00:03:00,28.1,27.4,30.63,NE,37,0.0,0.0,97,0.00,,,0.00,Wunderground v.1.15,2013-01-19 05:03:00,
2013-01-19 00:04:00,28.1,27.4,30.63,NE,37,0.0,0.0,97,0.00,,,0.00,Wunderground v.1.15,2013-01-19 05:04:00,
2013-01-19 00:05:00,28.1,27.4,30.63,NE,37,0.0,0.0,97,0.00,,,0.00,Wunderground v.1.15,2013-01-19 05:05:00,
2013-01-19 00:10:00,28.1,27.4,30.63,NE,37,0.0,0.0,97,0.00,,,0.00,Wunderground v.1.15,2013-01-19 05:10:00,
2013-01-19 00:16:00,28.1,27.4,30.63,NE,37,0.0,0.0,97,0.00,,,0.00,Wunderground v.1.15,2013-01-19 05:16:00,
2013-01-19 00:21:00,28.0,27.3,30.63,NE,37,0.0,0.0,97,0.00,,,0.00,Wunderground v.1.15,2013-01-19 05:21:00,
2013-01-19 00:26:00,27.9,27.2,30.63,NE,37,0.0,0.0,97,0.00,,,0.00,Wunderground v.1.15,2013-01-19 05:26:00,
2013-01-19 00:32:00,27.7,27.0,30.63,NE,37,0.0,0.0,97,0.00,,,0.00,Wunderground v.1.15,2013-01-19 05:32:00,
2013-01-19 00:37:00,27.6,26.9,30.62,NE,37,0.0,0.0,97,0.00,,,0.00,Wunderground v.1.15,2013-01-19 05:37:00,
2013-01-19 00:42:00,27.6,26.9,30.62,NE,37,0.0,0.0,97,0.00,,,0.00,Wunderground v.1.15,2013-01-19 05:42:00,
2013-01-19 00:48:00,27.5,27.0,30.62,NE,37,0.0,0.0,98,0.00,,,0.00,Wunderground v.1.15,2013-01-19 05:48:00,
2013-01-19 00:54:00,27.5,27.0,30.62,NE,37,0.0,0.0,98,0.00,,,0.00,Wunderground v.1.15,2013-01-19 05:54:00,
2013-01-19 01:00:00,27.4,26.9,30.62,NE,37,0.0,0.0,98,0.00,,,0.00,Wunderground v.1.15,2013-01-19 06:00:00,
2013-01-19 01:06:00,27.4,26.9,30.62,NE,37,0.0,0.0,98,0.00,,,0.00,Wunderground v.1.15,2013-01-19 06:06:00,
2013-01-19 01:12:00,27.4,26.9,30.62,NE,37,0.0,0.0,98,0.00,,,0.00,Wunderground v.1.15,2013-01-19 06:12:00,
2013-01-19 01:17:00,27.4,26.9,30.61,NE,37,0.0,0.0,98,0.00,,,0.00,Wunderground v.1.15,2013-01-19 06:17:00,
2013-01-19 01:22:00,27.4,27.2,30.61,NE,37,0.0,0.0,99,0.00,,,0.00,Wunderground v.1.15,2013-01-19 06:22:00,
2013-01-19 01:27:00,27.4,26.9,30.61,NE,37,0.0,0.0,98,0.00,,,0.00,Wunderground v.1.15,2013-01-19 06:27:00,
2013-01-19 01:32:00,27.2,26.7,30.61,NE,37,0.0,0.0,98,0.00,,,0.00,Wunderground v.1.15,2013-01-19 06:32:00,
2013-01-19 01:38:00,27.2,26.7,30.61,NE,37,0.0,0.0,98,0.00,,,0.00,Wunderground v.1.15,2013-01-19 06:38:00,
2013-01-19 01:43:00,27.0,26.5,30.61,NE,37,0.0,0.0,98,0.00,,,0.00,Wunderground v.1.15,2013-01-19 06:43:00,
2013-01-19 01:49:00,26.9,26.4,30.61,NE,37,0.0,0.0,98,0.00,,,0.00,Wunderground v.1.15,2013-01-19 06:49:00,
2013-01-19 01:54:00,26.8,26.3,30.61,NE,37,0.0,0.0,98,0.00,,,0.00,Wunderground v.1.15,2013-01-19 06:54:00,
2013-01-19 02:00:00,26.7,26.2,30.61,NE,37,0.0,0.0,98,0.00,,,0.00,Wunderground v.1.15,2013-01-19 07:00:00,
2013-01-19 02:05:00,26.6,26.1,30.61,NE,37,0.0,0.0,98,0.00,,,0.00,Wunderground v.1.15,2013-01-19 07:05:00,
2013-01-19 02:10:00,26.5,26.0,30.61,NE,37,0.0,0.0,98,0.00,,,0.00,Wunderground v.1.15,2013-01-19 07:10:00,
2013-01-19 02:15:00,26.4,25.9,30.61,NE,37,0.0,0.0,98,0.00,,,0.00,Wunderground v.1.15,2013-01-19 07:15:00,
2013-01-19 02:20:00,26.3,25.8,30.61,NE,37,0.0,0.0,98,0.00,,,0.00,Wunderground v.1.15,2013-01-19 07:20:00,
2013-01-19 02:25:00,26.3,25.8,30.61,NE,37,0.0,0.0,98,0.00,,,0.00,Wunderground v.1.15,2013-01-19 07:25:00,
2013-01-19 02:30:00,26.2,25.7,30.61,NE,37,0.0,0.0,98,0.00,,,0.00,Wunderground v.1.15,2013-01-19 07:30:00,
2013-01-19 02:35:00,26.1,25.6,30.60,NE,37,0.0,0.0,98,0.00,,,0.00,Wunderground v.1.15,2013-01-19 07:35:00,
2013-01-19 02:40:00,26.1,25.6,30.61,NE,37,0.0,0.0,98,0.00,,,0.00,Wunderground v.1.15,2013-01-19 07:40:00,
2013-01-19 02:45:00,26.0,25.5,30.61,NE,37,0.0,0.0,98,0.00,,,0.00,Wunderground v.1.15,2013-01-19 07:45:00,
2013-01-19 02:50:00,26.0,25.5,30.61,NE,37,0.0,0.0,98,0.00,,,0.00,Wunderground v.1.15,2013-01-19 07:50:00,
2013-01-19 02:55:00,26.0,25.5,30.61,NE,37,0.0,0.0,98,0.00,,,0.00,Wunderground v.1.15,2013-01-19 07:55:00,
2013-01-19 03:00:00,26.0,25.8,30.61,NE,37,0.0,0.0,99,0.00,,,0.00,Wunderground v.1.15,2013-01-19 08:00:00,
2013-01-19 03:05:00,26.0,25.8,30.61,NE,37,0.0,0.0,99,0.00,,,0.00,Wunderground v.1.15,2013-01-19 08:05:00,
2013-01-19 03:10:00,26.1,25.9,30.60,NE,37,0.0,0.0,99,0.00,,,0.00,Wunderground v.1.15,2013-01-19 08:10:00,
2013-01-19 03:15:00,26.1,25.9,30.60,NE,37,0.0,0.0,99,0.00,,,0.00,Wunderground v.1.15,2013-01-19 08:15:00,
2013-01-19 03:20:00,26.2,26.2,30.60,NE,37,0.0,0.0,100,0.00,,,0.00,Wunderground v.1.15,2013-01-19 08:20:00,
2013-01-19 03:25:00,26.3,26.3,30.60,NE,37,0.0,0.0,100,0.00,,,0.00,Wunderground v.1.15,2013-01-19 08:25:00,
2013-01-19 03:30:00,26.3,26.3,30.60,NE,37,0.0,0.0,100,0.00,,,0.00,Wunderground v.1.15,2013-01-19 08:30:00,
2013-01-19 03:35:00,26.2,26.0,30.60,NE,37,0.0,0.0,99,0.00,,,0.00,Wunderground v.1.15,2013-01-19 08:35:00,
2013-01-19 03:40:00,26.2,26.0,30.60,NE,37,0.0,0.0,99,0.00,,,0.00,Wunderground v.1.15,2013-01-19 08:40:00,
2013-01-19 03:45:00,26.1,25.9,30.60,NE,37,0.0,0.0,99,0.00,,,0.00,Wunderground v.1.15,2013-01-19 08:45:00,
2013-01-19 03:50:00,26.0,25.8,30.60,NE,37,0.0,0.0,99,0.00,,,0.00,Wunderground v.1.15,2013-01-19 08:50:00,
2013-01-19 03:55:00,26.0,25.8,30.60,NE,37,0.0,0.0,99,0.00,,,0.00,Wunderground v.1.15,2013-01-19 08:55:00,
2013-01-19 04:00:00,25.9,25.7,30.60,NE,37,0.0,0.0,99,0.00,,,0.00,Wunderground v.1.15,2013-01-19 09:00:00,
2013-01-19 04:05:00,25.7,25.5,30.60,NE,37,0.0,0.0,99,0.00,,,0.00,Wunderground v.1.15,2013-01-19 09:05:00,
2013-01-19 04:10:00,25.6,25.4,30.60,NE,37,0.0,0.0,99,0.00,,,0.00,Wunderground v.1.15,2013-01-19 09:10:00,
2013-01-19 04:15:00,25.4,24.9,30.61,NE,37,0.0,0.0,98,0.00,,,0.00,Wunderground v.1.15,2013-01-19 09:15:00,
2013-01-19 04:20:00,25.4,25.2,30.60,NE,37,0.0,0.0,99,0.00,,,0.00,Wunderground v.1.15,2013-01-19 09:20:00,
2013-01-19 04:25:00,25.3,25.1,30.61,NE,37,0.0,0.0,99,0.00,,,0.00,Wunderground v.1.15,2013-01-19 09:25:00,
2013-01-19 04:30:00,25.2,25.0,30.60,NE,37,0.0,0.0,99,0.00,,,0.00,Wunderground v.1.15,2013-01-19 09:30:00,
2013-01-19 04:35:00,25.2,25.0,30.60,NE,37,0.0,0.0,99,0.00,,,0.00,Wunderground v.1.15,2013-01-19 09:35:00,
2013-01-19 04:40:00,25.1,24.9,30.60,NE,37,0.0,0.0,99,0.00,,,0.00,Wunderground v.1.15,2013-01-19 09:40:00,
2013-01-19 04:45:00,25.1,24.9,30.60,NE,37,0.0,0.0,99,0.00,,,0.00,Wunderground v.1.15,2013-01-19 09:45:00,
2013-01-19 04:50:00,25.1,24.9,30.60,NE,37,0.0,0.0,99,0.00,,,0.00,Wunderground v.1.15,2013-01-19 09:50:00,
2013-01-19 04:55:00,25.1,24.9,30.60,NE,37,0.0,0.0,99,0.00,,,0.00,Wunderground v.1.15,2013-01-19 09:55:00,
2013-01-19 05:00:00,25.1,24.9,30.60,NE,37,0.0,0.0,99,0.00,,,0.00,Wunderground v.1.15,2013-01-19 10:00:00,
2013-01-19 05:05:00,25.1,25.1,30.60,NE,37,0.0,0.0,100,0.00,,,0.00,Wunderground v.1.15,2013-01-19 10:05:00,
2013-01-19 05:10:00,25.2,25.2,30.60,NE,37,0.0,0.0,100,0.00,,,0.00,Wunderground v.1.15,2013-01-19 10:10:00,
2013-01-19 05:15:00,25.2,25.2,30.60,NE,37,0.0,0.0,100,0.00,,,0.00,Wunderground v.1.15,2013-01-19 10:15:00,
2013-01-19 05:20:00,25.3,25.3,30.60,NE,37,0.0,0.0,100,0.00,,,0.00,Wunderground v.1.15,2013-01-19 10:20:00,
2013-01-19 05:25:00,25.3,25.3,30.60,NE,37,0.0,0.0,100,0.00,,,0.00,Wunderground v.1.15,2013-01-19 10:25:00,
2013-01-19 05:31:00,25.2,25.2,30.60,NE,37,0.0,0.0,100,0.00,,,0.00,Wunderground v.1.15,2013-01-19 10:31:00,
2013-01-19 05:36:00,25.1,24.9,30.60,NE,37,0.0,0.0,99,0.00,,,0.00,Wunderground v.1.15,2013-01-19 10:36:00,
2013-01-19 05:41:00,25.0,24.8,30.60,NE,37,0.0,0.0,99,0.00,,,0.00,Wunderground v.1.15,2013-01-19 10:41:00,
2013-01-19 05:46:00,24.9,24.7,30.60,NE,37,0.0,0.0,99,0.00,,,0.00,Wunderground v.1.15,2013-01-19 10:46:00,
2013-01-19 05:52:00,24.9,24.7,30.60,NE,37,0.0,0.0,99,0.00,,,0.00,Wunderground v.1.15,2013-01-19 10:52:00,
2013-01-19 05:57:00,24.8,24.6,30.59,NE,37,0.0,0.0,99,0.00,,,0.00,Wunderground v.1.15,2013-01-19 10:57:00,
2013-01-19 06:02:00,24.8,24.6,30.60,NE,37,0.0,0.0,99,0.00,,,0.00,Wunderground v.1.15,2013-01-19 11:02:00,
2013-01-19 06:07:00,24.6,24.4,30.59,NE,37,0.0,0.0,99,0.00,,,0.00,Wunderground v.1.15,2013-01-19 11:07:00,
2013-01-19 06:12:00,24.5,24.3,30.60,ENE,67,0.0,1.0,99,0.00,,,0.00,Wunderground v.1.15,2013-01-19 11:12:00,
2013-01-19 07:47:00,24.0,23.8,30.59,ENE,67,0.0,0.0,99,0.00,,,0.00,Wunderground v.1.15,2013-01-19 12:47:00,
2013-01-19 07:48:00,24.0,23.8,30.59,ENE,67,0.0,0.0,99,0.00,,,0.00,Wunderground v.1.15,2013-01-19 12:48:00,
2013-01-19 07:49:00,24.0,23.8,30.59,ENE,67,0.0,0.0,99,0.00,,,0.00,Wunderground v.1.15,2013-01-19 12:49:00,
2013-01-19 07:54:00,23.9,23.7,30.59,ENE,67,0.0,0.0,99,0.00,,,0.00,Wunderground v.1.15,2013-01-19 12:54:00,
2013-01-19 07:59:00,23.9,23.7,30.58,ENE,67,0.0,0.0,99,0.00,,,0.00,Wunderground v.1.15,2013-01-19 12:59:00,
2013-01-19 08:04:00,23.9,23.7,30.58,ENE,67,0.0,0.0,99,0.00,,,0.00,Wunderground v.1.15,2013-01-19 13:04:00,
2013-01-19 08:09:00,23.9,23.7,30.59,ENE,67,0.0,0.0,99,0.00,,,0.00,Wunderground v.1.15,2013-01-19 13:09:00,
2013-01-19 08:14:00,23.9,23.7,30.59,ENE,67,0.0,0.0,99,0.00,,,0.00,Wunderground v.1.15,2013-01-19 13:14:00,
2013-01-19 08:19:00,24.0,24.0,30.59,ENE,67,0.0,0.0,100,0.00,,,0.00,Wunderground v.1.15,2013-01-19 13:19:00,
2013-01-19 08:24:00,24.0,24.0,30.59,ENE,67,0.0,0.0,100,0.00,,,0.00,Wunderground v.1.15,2013-01-19 13:24:00,
2013-01-19 08:29:00,24.2,24.2,30.59,ENE,67,0.0,0.0,100,0.00,,,0.00,Wunderground v.1.15,2013-01-19 13:29:00,
2013-01-19 08:34:00,24.3,24.3,30.59,ENE,67,0.0,0.0,100,0.00,,,0.00,Wunderground v.1.15,2013-01-19 13:34:00,
2013-01-19 08:39:00,24.6,24.6,30.59,ENE,67,0.0,0.0,100,0.00,,,0.00,Wunderground v.1.15,2013-01-19 13:39:00,
2013-01-19 08:44:00,24.8,24.8,30.59,ENE,67,0.0,0.0,100,0.00,,,0.00,Wunderground v.1.15,2013-01-19 13:44:00,
2013-01-19 08:49:00,25.1,25.1,30.60,ENE,67,0.0,0.0,100,0.00,,,0.00,Wunderground v.1.15,2013-01-19 13:49:00,
2013-01-19 08:54:00,25.4,25.4,30.60,ENE,67,0.0,0.0,100,0.00,,,0.00,Wunderground v.1.15,2013-01-19 13:54:00,
2013-01-19 08:59:00,25.8,25.8,30.60,ENE,67,0.0,0.0,100,0.00,,,0.00,Wunderground v.1.15,2013-01-19 13:59:00,
2013-01-19 09:04:00,26.1,26.1,30.60,ENE,67,0.0,0.0,100,0.00,,,0.00,Wunderground v.1.15,2013-01-19 14:04:00,
2013-01-19 09:09:00,26.5,26.5,30.60,ENE,67,0.0,0.0,100,0.00,,,0.00,Wunderground v.1.15,2013-01-19 14:09:00,
2013-01-19 09:14:00,26.8,26.8,30.60,ENE,67,0.0,0.0,100,0.00,,,0.00,Wunderground v.1.15,2013-01-19 14:14:00,
2013-01-19 09:19:00,27.2,27.2,30.60,ENE,67,0.0,0.0,100,0.00,,,0.00,Wunderground v.1.15,2013-01-19 14:19:00,
2013-01-19 09:24:00,27.6,27.6,30.60,ENE,67,0.0,0.0,100,0.00,,,0.00,Wunderground v.1.15,2013-01-19 14:24:00,
2013-01-19 09:29:00,28.0,28.0,30.60,ENE,67,0.0,0.0,100,0.00,,,0.00,Wunderground v.1.15,2013-01-19 14:29:00,
2013-01-19 09:34:00,28.3,28.3,30.60,ENE,67,0.0,0.0,100,0.00,,,0.00,Wunderground v.1.15,2013-01-19 14:34:00,
2013-01-19 09:39:00,28.7,28.7,30.60,ENE,67,0.0,0.0,100,0.00,,,0.00,Wunderground v.1.15,2013-01-19 14:39:00,
2013-01-19 09:44:00,29.2,29.0,30.60,ENE,67,0.0,0.0,99,0.00,,,0.00,Wunderground v.1.15,2013-01-19 14:44:00,
2013-01-19 09:49:00,29.7,29.2,30.60,ENE,67,0.0,0.0,98,0.00,,,0.00,Wunderground v.1.15,2013-01-19 14:49:00,
2013-01-19 09:54:00,30.2,29.7,30.60,ENE,67,0.0,0.0,98,0.00,,,0.00,Wunderground v.1.15,2013-01-19 14:54:00,
2013-01-19 09:59:00,30.8,30.0,30.60,ENE,67,1.0,1.0,97,0.00,,,0.00,Wunderground v.1.15,2013-01-19 14:59:00,
2013-01-19 10:04:00,31.3,29.5,30.60,ENE,67,0.0,1.0,93,0.00,,,0.00,Wunderground v.1.15,2013-01-19 15:04:00,
2013-01-19 10:09:00,31.7,29.4,30.60,ENE,67,0.0,0.0,91,0.00,,,0.00,Wunderground v.1.15,2013-01-19 15:09:00,
2013-01-19 10:15:00,32.3,29.1,30.60,ENE,67,0.0,1.0,88,0.00,,,0.00,Wunderground v.1.15,2013-01-19 15:15:00,
2013-01-19 10:20:00,32.8,29.1,30.60,ENE,67,0.0,0.0,86,0.00,,,0.00,Wunderground v.1.15,2013-01-19 15:20:00,
2013-01-19 10:25:00,33.4,29.4,30.59,ENE,67,0.0,1.0,85,0.00,,,0.00,Wunderground v.1.15,2013-01-19 15:25:00,
2013-01-19 10:30:00,33.9,29.6,30.59,ENE,67,0.0,0.0,84,0.00,,,0.00,Wunderground v.1.15,2013-01-19 15:30:00,
2013-01-19 10:35:00,34.2,29.3,30.59,ENE,67,0.0,1.0,82,0.00,,,0.00,Wunderground v.1.15,2013-01-19 15:35:00,
2013-01-19 10:40:00,34.8,29.6,30.59,ENE,67,0.0,0.0,81,0.00,,,0.00,Wunderground v.1.15,2013-01-19 15:40:00,
2013-01-19 10:45:00,35.3,30.4,30.58,ENE,67,0.0,1.0,82,0.00,,,0.00,Wunderground v.1.15,2013-01-19 15:45:00,
2013-01-19 10:50:00,35.9,30.9,30.58,ENE,67,0.0,0.0,82,0.00,,,0.00,Wunderground v.1.15,2013-01-19 15:50:00,
2013-01-19 10:55:00,36.5,31.2,30.58,ENE,67,0.0,1.0,81,0.00,,,0.00,Wunderground v.1.15,2013-01-19 15:55:00,
2013-01-19 11:00:00,37.0,31.1,30.58,ENE,67,0.0,0.0,79,0.00,,,0.00,Wunderground v.1.15,2013-01-19 16:00:00,
2013-01-19 11:05:00,37.4,30.8,30.57,ENE,67,0.0,1.0,77,0.00,,,0.00,Wunderground v.1.15,2013-01-19 16:05:00,
2013-01-19 11:10:00,37.7,30.5,30.57,ENE,67,0.0,0.0,75,0.00,,,0.00,Wunderground v.1.15,2013-01-19 16:10:00,
2013-01-19 11:15:00,38.1,31.2,30.56,ENE,67,0.0,1.0,76,0.00,,,0.00,Wunderground v.1.15,2013-01-19 16:15:00,
2013-01-19 11:20:00,38.8,31.6,30.56,ENE,67,1.0,2.0,75,0.00,,,0.00,Wunderground v.1.15,2013-01-19 16:20:00,
2013-01-19 11:26:00,39.4,31.8,30.55,ENE,67,0.0,2.0,74,0.00,,,0.00,Wunderground v.1.15,2013-01-19 16:26:00,
2013-01-19 11:31:00,40.1,32.1,30.55,ENE,58,0.0,2.0,73,0.00,,,0.00,Wunderground v.1.15,2013-01-19 16:31:00,
2013-01-19 11:36:00,40.8,32.5,30.54,ENE,58,1.0,2.0,72,0.00,,,0.00,Wunderground v.1.15,2013-01-19 16:36:00,
2013-01-19 11:41:00,41.3,31.2,30.54,ENE,58,0.0,1.0,67,0.00,,,0.00,Wunderground v.1.15,2013-01-19 16:41:00,
2013-01-19 11:46:00,41.7,33.0,30.53,ENE,58,0.0,1.0,71,0.00,,,0.00,Wunderground v.1.15,2013-01-19 16:46:00,
2013-01-19 11:51:00,42.1,31.9,30.53,ENE,58,0.0,0.0,67,0.00,,,0.00,Wunderground v.1.15,2013-01-19 16:51:00,
2013-01-19 11:56:00,42.5,32.7,30.52,NE,53,0.0,2.0,68,0.00,,,0.00,Wunderground v.1.15,2013-01-19 16:56:00,
2013-01-19 12:01:00,43.0,33.2,30.51,NE,53,0.0,1.0,68,0.00,,,0.00,Wunderground v.1.15,2013-01-19 17:01:00,
2013-01-19 12:06:00,43.4,33.5,30.51,NE,53,0.0,1.0,68,0.00,,,0.00,Wunderground v.1.15,2013-01-19 17:06:00,
2013-01-19 12:13:00,44.0,32.6,30.50,SSE,163,0.0,2.0,64,0.00,,,0.00,Wunderground v.1.15,2013-01-19 17:13:00,
2013-01-19 12:20:00,44.8,33.7,30.50,SSE,163,0.0,0.0,65,0.00,,,0.00,Wunderground v.1.15,2013-01-19 17:20:00,
2013-01-19 12:25:00,45.0,33.2,30.49,SSE,163,0.0,0.0,63,0.00,,,0.00,Wunderground v.1.15,2013-01-19 17:25:00,
2013-01-19 12:30:00,45.4,33.1,30.49,SSE,163,1.0,2.0,62,0.00,,,0.00,Wunderground v.1.15,2013-01-19 17:30:00,
2013-01-19 12:35:00,45.8,33.9,30.48,SSE,163,0.0,2.0,63,0.00,,,0.00,Wunderground v.1.15,2013-01-19 17:35:00,
2013-01-19 12:40:00,45.9,33.2,30.48,SSE,163,0.0,1.0,61,0.00,,,0.00,Wunderground v.1.15,2013-01-19 17:40:00,
2013-01-19 12:45:00,46.3,32.7,30.48,SSE,163,0.0,1.0,59,0.00,,,0.00,Wunderground v.1.15,2013-01-19 17:45:00,
2013-01-19 12:50:00,46.5,32.5,30.47,SSE,163,0.0,0.0,58,0.00,,,0.00,Wunderground v.1.15,2013-01-19 17:50:00,
2013-01-19 12:56:00,46.7,31.4,30.47,SSE,163,0.0,1.0,55,0.00,,,0.00,Wunderground v.1.15,2013-01-19 17:56:00,
2013-01-19 13:01:00,46.9,31.1,30.47,SSE,163,0.0,1.0,54,0.00,,,0.00,Wunderground v.1.15,2013-01-19 18:01:00,
2013-01-19 13:07:00,47.2,31.8,30.46,SSE,163,0.0,2.0,55,0.00,,,0.00,Wunderground v.1.15,2013-01-19 18:07:00,
2013-01-19 13:12:00,47.5,32.1,30.46,SSE,163,0.0,0.0,55,0.00,,,0.00,Wunderground v.1.15,2013-01-19 18:12:00,
2013-01-19 13:18:00,47.8,32.4,30.45,SSE,163,0.0,1.0,55,0.00,,,0.00,Wunderground v.1.15,2013-01-19 18:18:00,
2013-01-19 13:23:00,48.1,32.7,30.44,South,180,1.0,2.0,55,0.00,,,0.00,Wunderground v.1.15,2013-01-19 18:23:00,
2013-01-19 13:28:00,48.6,31.8,30.44,South,173,0.0,2.0,52,0.00,,,0.00,Wunderground v.1.15,2013-01-19 18:28:00,
2013-01-19 13:33:00,49.0,34.4,30.44,South,173,1.0,1.0,57,0.00,,,0.00,Wunderground v.1.15,2013-01-19 18:33:00,
2013-01-19 13:38:00,49.3,33.8,30.44,SSE,150,0.0,3.0,55,0.00,,,0.00,Wunderground v.1.15,2013-01-19 18:38:00,
2013-01-19 13:43:00,49.7,33.7,30.43,SSE,164,2.0,2.0,54,0.00,,,0.00,Wunderground v.1.15,2013-01-19 18:43:00,
2013-01-19 13:48:00,50.1,34.5,30.43,SSE,163,0.0,2.0,55,0.00,,,0.00,Wunderground v.1.15,2013-01-19 18:48:00,
2013-01-19 13:53:00,50.4,34.4,30.42,SSW,202,1.0,1.0,54,0.00,,,0.00,Wunderground v.1.15,2013-01-19 18:53:00,
2013-01-19 13:59:00,50.8,34.3,30.42,ENE,67,1.0,2.0,53,0.00,,,0.00,Wunderground v.1.15,2013-01-19 18:59:00,
2013-01-19 14:04:00,51.3,35.2,30.42,South,175,0.0,3.0,54,0.00,,,0.00,Wunderground v.1.15,2013-01-19 19:04:00,
2013-01-19 14:09:00,51.7,34.6,30.41,SSE,157,0.0,3.0,52,0.00,,,0.00,Wunderground v.1.15,2013-01-19 19:09:00,
2013-01-19 14:14:00,52.1,34.0,30.41,SSE,162,0.0,2.0,50,0.00,,,0.00,Wunderground v.1.15,2013-01-19 19:14:00,
2013-01-19 14:19:00,52.4,32.7,30.40,SSW,192,1.0,4.0,47,0.00,,,0.00,Wunderground v.1.15,2013-01-19 19:19:00,
2013-01-19 14:25:00,52.7,33.5,30.40,West,265,0.0,3.0,48,0.00,,,0.00,Wunderground v.1.15,2013-01-19 19:25:00,
2013-01-19 14:30:00,53.0,28.0,30.39,South,183,10.0,10.0,38,0.00,,,0.00,Wunderground v.1.15,2013-01-19 19:30:00,
2013-01-19 14:35:00,53.3,28.3,30.39,SSE,159,0.0,10.0,38,0.00,,,0.00,Wunderground v.1.15,2013-01-19 19:35:00,
2013-01-19 14:40:00,53.4,32.0,30.39,South,190,0.0,3.0,44,0.00,,,0.00,Wunderground v.1.15,2013-01-19 19:40:00,
2013-01-19 14:45:00,53.5,30.4,30.39,South,187,1.0,3.0,41,0.00,,,0.00,Wunderground v.1.15,2013-01-19 19:45:00,
2013-01-19 14:51:00,53.5,29.7,30.39,South,187,0.0,1.0,40,0.00,,,0.00,Wunderground v.1.15,2013-01-19 19:51:00,
2013-01-19 14:56:00,53.6,30.4,30.39,South,187,1.0,1.0,41,0.00,,,0.00,Wunderground v.1.15,2013-01-19 19:56:00,
2013-01-19 15:01:00,53.5,28.5,30.38,SSE,153,2.0,3.0,38,0.00,,,0.00,Wunderground v.1.15,2013-01-19 20:01:00,
2013-01-19 15:07:00,53.6,31.0,30.38,South,183,1.0,3.0,42,0.00,,,0.00,Wunderground v.1.15,2013-01-19 20:07:00,
2013-01-19 15:12:00,53.7,29.9,30.38,South,170,2.0,2.0,40,0.00,,,0.00,Wunderground v.1.15,2013-01-19 20:12:00,
2013-01-19 15:17:00,53.7,30.5,30.38,South,180,0.0,5.0,41,0.00,,,0.00,Wunderground v.1.15,2013-01-19 20:17:00,
2013-01-19 15:23:00,53.7,31.1,30.38,South,182,1.0,2.0,42,0.00,,,0.00,Wunderground v.1.15,2013-01-19 20:23:00,
2013-01-19 15:28:00,53.5,32.7,30.38,SSE,167,0.0,6.0,45,0.00,,,0.00,Wunderground v.1.15,2013-01-19 20:28:00,
2013-01-19 15:33:00,53.4,33.1,30.38,SSW,205,1.0,2.0,46,0.00,,,0.00,Wunderground v.1.15,2013-01-19 20:33:00,
2013-01-19 15:38:00,53.2,32.4,30.38,SSE,148,0.0,7.0,45,0.00,,,0.00,Wunderground v.1.15,2013-01-19 20:38:00,
2013-01-19 15:43:00,53.0,32.2,30.37,SSE,167,1.0,2.0,45,0.00,,,0.00,Wunderground v.1.15,2013-01-19 20:43:00,
2013-01-19 15:48:00,52.9,33.2,30.37,SSE,153,1.0,3.0,47,0.00,,,0.00,Wunderground v.1.15,2013-01-19 20:48:00,
2013-01-19 15:53:00,52.8,33.6,30.37,South,169,0.0,5.0,48,0.00,,,0.00,Wunderground v.1.15,2013-01-19 20:53:00,
2013-01-19 15:58:00,52.6,33.5,30.37,South,180,4.0,11.0,48,0.00,,,0.00,Wunderground v.1.15,2013-01-19 20:58:00,
2013-01-19 16:03:00,52.3,33.2,30.37,SSE,161,0.0,4.0,48,0.00,,,0.00,Wunderground v.1.15,2013-01-19 21:03:00,
2013-01-19 16:08:00,52.1,33.5,30.37,SSE,164,5.0,5.0,49,0.00,,,0.00,Wunderground v.1.15,2013-01-19 21:08:00,
2013-01-19 16:14:00,51.9,32.8,30.37,SSE,168,2.0,4.0,48,0.00,,,0.00,Wunderground v.1.15,2013-01-19 21:14:00,
2013-01-19 16:19:00,51.7,33.1,30.36,South,187,1.0,5.0,49,0.00,,,0.00,Wunderground v.1.15,2013-01-19 21:19:00,
2013-01-19 16:24:00,51.6,33.0,30.37,SSE,154,2.0,5.0,49,0.00,,,0.00,Wunderground v.1.15,2013-01-19 21:24:00,
2013-01-19 16:29:00,51.4,33.9,30.37,South,173,4.0,5.0,51,0.00,,,0.00,Wunderground v.1.15,2013-01-19 21:29:00,
2013-01-19 16:34:00,51.2,33.2,30.36,South,177,1.0,2.0,50,0.00,,,0.00,Wunderground v.1.15,2013-01-19 21:34:00,
2013-01-19 16:40:00,51.1,33.1,30.36,SSE,168,0.0,1.0,50,0.00,,,0.00,Wunderground v.1.15,2013-01-19 21:40:00,
2013-01-19 16:45:00,50.9,32.9,30.37,SSE,158,0.0,10.0,50,0.00,,,0.00,Wunderground v.1.15,2013-01-19 21:45:00,
2013-01-19 16:50:00,50.7,32.7,30.37,SE,124,1.0,5.0,50,0.00,,,0.00,Wunderground v.1.15,2013-01-19 21:50:00,
2013-01-19 16:55:00,50.4,32.9,30.37,South,174,2.0,5.0,51,0.00,,,0.00,Wunderground v.1.15,2013-01-19 21:55:00,
2013-01-19 17:00:00,50.1,33.1,30.37,SSE,165,2.0,2.0,52,0.00,,,0.00,Wunderground v.1.15,2013-01-19 22:00:00,
2013-01-19 17:06:00,49.7,32.8,30.37,South,174,2.0,5.0,52,0.00,,,0.00,Wunderground v.1.15,2013-01-19 22:06:00,
2013-01-19 17:11:00,49.5,33.1,30.37,South,171,0.0,1.0,53,0.00,,,0.00,Wunderground v.1.15,2013-01-19 22:11:00,
2013-01-19 17:17:00,49.2,32.8,30.36,South,172,3.0,3.0,53,0.00,,,0.00,Wunderground v.1.15,2013-01-19 22:17:00,
2013-01-19 17:22:00,49.0,32.6,30.36,SSE,164,0.0,2.0,53,0.00,,,0.00,Wunderground v.1.15,2013-01-19 22:22:00,
2013-01-19 17:27:00,48.7,32.8,30.37,SSE,164,3.0,3.0,54,0.00,,,0.00,Wunderground v.1.15,2013-01-19 22:27:00,
2013-01-19 17:32:00,48.4,32.5,30.37,SSE,163,0.0,4.0,54,0.00,,,0.00,Wunderground v.1.15,2013-01-19 22:32:00,
2013-01-19 17:38:00,48.1,32.7,30.36,SSE,161,0.0,4.0,55,0.00,,,0.00,Wunderground v.1.15,2013-01-19 22:38:00,
2013-01-19 17:43:00,47.7,33.6,30.36,SE,140,0.0,1.0,58,0.00,,,0.00,Wunderground v.1.15,2013-01-19 22:43:00,
2013-01-19 17:48:00,47.4,34.2,30.36,SSE,161,0.0,1.0,60,0.00,,,0.00,Wunderground v.1.15,2013-01-19 22:48:00,
2013-01-19 17:53:00,46.9,33.7,30.36,SSE,162,0.0,1.0,60,0.00,,,0.00,Wunderground v.1.15,2013-01-19 22:53:00,
2013-01-19 17:59:00,46.4,33.7,30.36,SSE,156,0.0,1.0,61,0.00,,,0.00,Wunderground v.1.15,2013-01-19 22:59:00,
2013-01-19 18:04:00,46.0,33.7,30.37,SSE,167,1.0,2.0,62,0.00,,,0.00,Wunderground v.1.15,2013-01-19 23:04:00,
2013-01-19 18:09:00,45.7,33.8,30.36,SSE,167,0.0,2.0,63,0.00,,,0.00,Wunderground v.1.15,2013-01-19 23:09:00,
2013-01-19 18:15:00,45.2,33.3,30.37,South,175,0.0,0.0,63,0.00,,,0.00,Wunderground v.1.15,2013-01-19 23:15:00,
2013-01-19 18:20:00,44.8,33.4,30.37,South,175,0.0,0.0,64,0.00,,,0.00,Wunderground v.1.15,2013-01-19 23:20:00,
2013-01-19 18:25:00,44.5,33.1,30.37,South,175,0.0,0.0,64,0.00,,,0.00,Wunderground v.1.15,2013-01-19 23:25:00,
2013-01-19 18:31:00,44.2,33.2,30.37,South,175,0.0,0.0,65,0.00,,,0.00,Wunderground v.1.15,2013-01-19 23:31:00,
2013-01-19 18:36:00,44.0,33.0,30.38,South,175,0.0,1.0,65,0.00,,,0.00,Wunderground v.1.15,2013-01-19 23:36:00,
2013-01-19 18:42:00,43.6,32.6,30.38,SSE,163,0.0,3.0,65,0.00,,,0.00,Wunderground v.1.15,2013-01-19 23:42:00,
2013-01-19 18:47:00,43.4,32.8,30.38,SSE,161,0.0,3.0,66,0.00,,,0.00,Wunderground v.1.15,2013-01-19 23:47:00,
2013-01-19 18:53:00,43.2,33.0,30.38,SSE,161,0.0,1.0,67,0.00,,,0.00,Wunderground v.1.15,2013-01-19 23:53:00,
2013-01-19 18:58:00,42.9,32.7,30.38,SSE,161,0.0,1.0,67,0.00,,,0.00,Wunderground v.1.15,2013-01-19 23:58:00,
2013-01-19 19:03:00,42.7,32.1,30.38,SSE,161,0.0,1.0,66,0.00,,,0.00,Wunderground v.1.15,2013-01-20 00:03:00,
2013-01-19 19:08:00,42.5,32.3,30.38,South,183,0.0,2.0,67,0.00,,,0.00,Wunderground v.1.15,2013-01-20 00:08:00,
2013-01-19 19:13:00,42.3,32.1,30.38,South,183,0.0,1.0,67,0.00,,,0.00,Wunderground v.1.15,2013-01-20 00:13:00,
2013-01-19 19:19:00,42.1,32.3,30.38,South,183,0.0,1.0,68,0.00,,,0.00,Wunderground v.1.15,2013-01-20 00:19:00,
2013-01-19 19:24:00,41.9,31.7,30.38,SSE,153,0.0,1.0,67,0.00,,,0.00,Wunderground v.1.15,2013-01-20 00:24:00,
2013-01-19 19:29:00,41.7,31.9,30.38,SSE,165,0.0,0.0,68,0.00,,,0.00,Wunderground v.1.15,2013-01-20 00:29:00,
2013-01-19 19:34:00,41.6,31.8,30.38,SSE,159,1.0,1.0,68,0.00,,,0.00,Wunderground v.1.15,2013-01-20 00:34:00,
2013-01-19 19:39:00,41.5,31.7,30.38,South,173,0.0,0.0,68,0.00,,,0.00,Wunderground v.1.15,2013-01-20 00:39:00,
2013-01-19 19:46:00,41.3,31.9,30.38,South,173,0.0,1.0,69,0.00,,,0.00,Wunderground v.1.15,2013-01-20 00:46:00,
2013-01-19 19:51:00,41.1,31.7,30.38,SSW,205,0.0,0.0,69,0.00,,,0.00,Wunderground v.1.15,2013-01-20 00:51:00,
2013-01-19 19:56:00,40.9,31.5,30.37,South,174,2.0,2.0,69,0.00,,,0.00,Wunderground v.1.15,2013-01-20 00:56:00,
2013-01-19 20:01:00,40.7,31.3,30.38,SSE,150,0.0,2.0,69,0.00,,,0.00,Wunderground v.1.15,2013-01-20 01:01:00,
2013-01-19 20:06:00,40.6,31.2,30.38,SE,139,0.0,2.0,69,0.00,,,0.00,Wunderground v.1.15,2013-01-20 01:06:00,
2013-01-19 20:11:00,40.5,31.1,30.38,SE,139,0.0,0.0,69,0.00,,,0.00,Wunderground v.1.15,2013-01-20 01:11:00,
2013-01-19 20:17:00,40.3,30.9,30.38,SE,139,0.0,1.0,69,0.00,,,0.00,Wunderground v.1.15,2013-01-20 01:17:00,
2013-01-19 20:22:00,40.2,30.8,30.38,SE,139,0.0,1.0,69,0.00,,,0.00,Wunderground v.1.15,2013-01-20 01:22:00,
2013-01-19 20:27:00,40.1,30.7,30.37,SSE,151,0.0,1.0,69,0.00,,,0.00,Wunderground v.1.15,2013-01-20 01:27:00,
2013-01-19 20:33:00,40.0,30.6,30.37,SSE,161,0.0,0.0,69,0.00,,,0.00,Wunderground v.1.15,2013-01-20 01:33:00,
2013-01-19 20:38:00,40.0,30.6,30.37,SSE,161,0.0,1.0,69,0.00,,,0.00,Wunderground v.1.15,2013-01-20 01:38:00,
2013-01-19 20:43:00,39.8,30.5,30.37,SE,133,0.0,1.0,69,0.00,,,0.00,Wunderground v.1.15,2013-01-20 01:43:00,
2013-01-19 20:48:00,39.7,30.7,30.37,SSE,148,0.0,2.0,70,0.00,,,0.00,Wunderground v.1.15,2013-01-20 01:48:00,
2013-01-19 20:54:00,39.6,30.6,30.36,SE,146,0.0,1.0,70,0.00,,,0.00,Wunderground v.1.15,2013-01-20 01:54:00,
2013-01-19 20:59:00,39.5,30.5,30.36,SSE,150,0.0,1.0,70,0.00,,,0.00,Wunderground v.1.15,2013-01-20 01:59:00,
2013-01-19 21:05:00,39.3,30.3,30.36,SSE,150,0.0,0.0,70,0.00,,,0.00,Wunderground v.1.15,2013-01-20 02:05:00,
2013-01-19 21:10:00,39.2,30.6,30.36,SSE,150,0.0,0.0,71,0.00,,,0.00,Wunderground v.1.15,2013-01-20 02:10:00,
2013-01-19 21:15:00,39.1,30.5,30.36,SSE,150,0.0,0.0,71,0.00,,,0.00,Wunderground v.1.15,2013-01-20 02:15:00,
2013-01-19 21:20:00,38.9,30.3,30.36,SSE,150,0.0,0.0,71,0.00,,,0.00,Wunderground v.1.15,2013-01-20 02:20:00,
2013-01-19 21:25:00,38.7,30.4,30.36,SSE,150,0.0,0.0,72,0.00,,,0.00,Wunderground v.1.15,2013-01-20 02:25:00,
2013-01-19 21:30:00,38.5,30.3,30.36,SSE,150,0.0,0.0,72,0.00,,,0.00,Wunderground v.1.15,2013-01-20 02:30:00,
2013-01-19 21:35:00,38.3,30.1,30.36,SSE,150,0.0,0.0,72,0.00,,,0.00,Wunderground v.1.15,2013-01-20 02:35:00,
2013-01-19 21:40:00,38.1,29.9,30.36,SSE,150,0.0,0.0,72,0.00,,,0.00,Wunderground v.1.15,2013-01-20 02:40:00,
2013-01-19 21:45:00,37.9,30.4,30.36,SSE,150,0.0,1.0,74,0.00,,,0.00,Wunderground v.1.15,2013-01-20 02:45:00,
2013-01-19 21:50:00,37.6,30.1,30.36,SSE,150,0.0,0.0,74,0.00,,,0.00,Wunderground v.1.15,2013-01-20 02:50:00,
2013-01-19 21:56:00,37.3,30.1,30.36,SSE,150,0.0,0.0,75,0.00,,,0.00,Wunderground v.1.15,2013-01-20 02:56:00,
2013-01-19 22:01:00,37.0,30.1,30.36,SSE,150,0.0,0.0,76,0.00,,,0.00,Wunderground v.1.15,2013-01-20 03:01:00,
2013-01-19 22:07:00,36.6,30.1,30.35,SSE,150,0.0,0.0,77,0.00,,,0.00,Wunderground v.1.15,2013-01-20 03:07:00,
2013-01-19 22:12:00,36.3,29.8,30.35,SSE,150,0.0,0.0,77,0.00,,,0.00,Wunderground v.1.15,2013-01-20 03:12:00,
2013-01-19 22:18:00,36.0,29.8,30.35,SSE,150,0.0,0.0,78,0.00,,,0.00,Wunderground v.1.15,2013-01-20 03:18:00,
2013-01-19 22:23:00,35.7,29.8,30.35,SSE,150,0.0,0.0,79,0.00,,,0.00,Wunderground v.1.15,2013-01-20 03:23:00,
2013-01-19 22:28:00,35.3,29.7,30.35,SSE,150,0.0,0.0,80,0.00,,,0.00,Wunderground v.1.15,2013-01-20 03:28:00,
2013-01-19 22:35:00,34.9,29.7,30.35,SSE,150,0.0,0.0,81,0.00,,,0.00,Wunderground v.1.15,2013-01-20 03:35:00,
2013-01-19 22:40:00,34.6,29.7,30.34,SSE,150,0.0,0.0,82,0.00,,,0.00,Wunderground v.1.15,2013-01-20 03:40:00,
2013-01-19 22:45:00,34.2,29.6,30.34,SSE,150,0.0,0.0,83,0.00,,,0.00,Wunderground v.1.15,2013-01-20 03:45:00,
2013-01-19 22:50:00,34.1,29.5,30.33,SSE,150,0.0,0.0,83,0.00,,,0.00,Wunderground v.1.15,2013-01-20 03:50:00,
2013-01-19 22:55:00,33.8,29.5,30.33,SSE,150,0.0,0.0,84,0.00,,,0.00,Wunderground v.1.15,2013-01-20 03:55:00,
2013-01-19 23:00:00,33.6,29.3,30.34,SSE,150,0.0,0.0,84,0.00,,,0.00,Wunderground v.1.15,2013-01-20 04:00:00,
2013-01-19 23:05:00,33.4,29.1,30.34,SSE,150,0.0,0.0,84,0.00,,,0.00,Wunderground v.1.15,2013-01-20 04:05:00,
2013-01-19 23:10:00,33.3,29.0,30.33,SSE,150,0.0,0.0,84,0.00,,,0.00,Wunderground v.1.15,2013-01-20 04:10:00,
2013-01-19 23:16:00,33.1,29.1,30.34,SSE,150,0.0,0.0,85,0.00,,,0.00,Wunderground v.1.15,2013-01-20 04:16:00,
2013-01-19 23:22:00,32.9,29.2,30.34,SSE,150,0.0,0.0,86,0.00,,,0.00,Wunderground v.1.15,2013-01-20 04:22:00,
2013-01-19 23:27:00,32.6,29.2,30.33,SSE,150,0.0,0.0,87,0.00,,,0.00,Wunderground v.1.15,2013-01-20 04:27:00,
2013-01-19 23:32:00,32.4,29.0,30.33,SSE,150,0.0,0.0,87,0.00,,,0.00,Wunderground v.1.15,2013-01-20 04:32:00,
2013-01-19 23:37:00,32.2,28.8,30.33,SSE,150,0.0,1.0,87,0.00,,,0.00,Wunderground v.1.15,2013-01-20 04:37:00,
2013-01-19 23:42:00,31.9,28.8,30.33,SSE,150,0.0,0.0,88,0.00,,,0.00,Wunderground v.1.15,2013-01-20 04:42:00,
2013-01-19 23:47:00,31.7,28.6,30.32,SSE,150,0.0,1.0,88,0.00,,,0.00,Wunderground v.1.15,2013-01-20 04:47:00,
2013-01-19 23:52:00,31.5,28.6,30.32,SSE,150,0.0,0.0,89,0.00,,,0.00,Wunderground v.1.15,2013-01-20 04:52:00,
2013-01-19 23:58:00,31.3,28.4,30.32,SSE,150,0.0,0.0,89,0.00,,,0.00,Wunderground v.1.15,2013-01-20 04:58:00,